createdAt,value
2023-02-19T00:01:48.344Z,6.27
2023-02-19T00:04:13.833Z,7.03
2023-02-19T00:06:36.381Z,6.87
2023-02-19T00:08:58.713Z,6.97
2023-02-19T00:11:22.498Z,7.67
2023-02-19T00:13:45.935Z,6.80
2023-02-19T00:16:13.167Z,7.63
2023-02-19T00:18:35.482Z,7.70
2023-02-19T00:20:57.863Z,7.67
2023-02-19T00:23:20.138Z,7.90
2023-02-19T00:25:42.326Z,7.60
2023-02-19T00:28:04.802Z,7.40
2023-02-19T00:30:27.105Z,7.90
2023-02-19T00:32:53.477Z,8.03
2023-02-19T00:35:15.818Z,8.13
2023-02-19T00:37:38.127Z,8.33
2023-02-19T00:40:00.299Z,8.40
2023-02-19T00:42:22.628Z,8.40
2023-02-19T00:44:44.820Z,8.50
2023-02-19T00:47:07.605Z,9.07
2023-02-19T00:49:29.903Z,8.67
2023-02-19T00:51:52.902Z,9.10
2023-02-19T00:54:15.941Z,8.73
2023-02-19T00:56:38.291Z,8.60
2023-02-19T00:59:00.664Z,8.20
2023-02-19T01:01:23.204Z,8.20
2023-02-19T01:03:50.558Z,8.20
2023-02-19T01:06:14.116Z,7.83
2023-02-19T01:08:36.654Z,7.70
2023-02-19T01:10:59.978Z,7.13
2023-02-19T01:13:22.383Z,7.20
2023-02-19T01:15:44.675Z,7.20
2023-02-19T01:18:10.267Z,6.73
2023-02-19T01:20:35.035Z,7.03
2023-02-19T01:22:57.379Z,6.47
2023-02-19T01:25:19.986Z,7.23
2023-02-19T01:27:43.039Z,6.87
2023-02-19T01:30:05.622Z,6.97
2023-02-19T01:32:28.059Z,7.07
2023-02-19T01:34:50.463Z,7.63
2023-02-19T01:37:13.227Z,6.53
2023-02-19T01:39:35.635Z,6.57
2023-02-19T01:41:58.614Z,7.07
2023-02-19T01:44:21.073Z,7.37
2023-02-19T01:46:44.221Z,6.73
2023-02-19T01:49:07.559Z,7.53
2023-02-19T01:51:30.818Z,7.03
2023-02-19T01:53:55.279Z,7.30
2023-02-19T01:56:19.085Z,6.90
2023-02-19T01:58:41.646Z,7.03
2023-02-19T02:01:05.437Z,6.83
2023-02-19T02:03:27.763Z,7.20
2023-02-19T02:05:58.260Z,6.83
2023-02-19T02:08:39.852Z,7.47
2023-02-19T02:11:02.911Z,6.90
2023-02-19T02:13:25.251Z,7.20
2023-02-19T02:16:00.947Z,8.10
2023-02-19T02:18:32.245Z,7.13
2023-02-19T02:21:13.700Z,8.13
2023-02-19T02:23:47.138Z,7.33
2023-02-19T02:26:09.930Z,7.33
2023-02-19T02:28:46.023Z,7.13
2023-02-19T02:31:20.421Z,6.77
2023-02-19T02:33:45.431Z,6.80
2023-02-19T02:36:28.250Z,6.60
2023-02-19T02:38:54.266Z,6.70
2023-02-19T02:41:18.077Z,7.03
2023-02-19T02:43:40.355Z,6.83
2023-02-19T02:46:02.678Z,7.53
2023-02-19T02:48:46.366Z,7.30
2023-02-19T02:51:25.153Z,7.77
2023-02-19T02:54:15.657Z,8.00
2023-02-19T02:56:38.540Z,8.03
2023-02-19T02:59:02.492Z,7.50
2023-02-19T03:01:53.263Z,7.50
2023-02-19T03:04:32.237Z,8.10
2023-02-19T03:06:55.361Z,7.63
2023-02-19T03:09:30.054Z,7.60
2023-02-19T03:12:12.733Z,7.83
2023-02-19T03:15:04.883Z,7.47
2023-02-19T03:18:12.439Z,6.87
2023-02-19T03:20:37.469Z,7.77
2023-02-19T03:23:00.917Z,7.37
2023-02-19T03:25:46.184Z,6.90
2023-02-19T03:28:13.766Z,7.07
2023-02-19T03:30:41.392Z,7.40
2023-02-19T03:33:17.890Z,6.77
2023-02-19T03:35:59.658Z,6.37
2023-02-19T03:38:30.222Z,6.47
2023-02-19T03:41:05.353Z,5.70
2023-02-19T03:43:35.963Z,5.30
2023-02-19T03:46:03.439Z,5.27
2023-02-19T03:48:35.106Z,5.50
2023-02-19T03:51:17.588Z,5.13
2023-02-19T03:54:09.657Z,5.23
2023-02-19T03:56:32.056Z,4.93
2023-02-19T03:58:59.547Z,4.40
2023-02-19T04:01:26.951Z,4.40
2023-02-19T04:03:49.787Z,4.60
2023-02-19T04:06:14.342Z,4.23
2023-02-19T04:08:37.806Z,4.67
2023-02-19T04:11:01.655Z,4.10
2023-02-19T04:13:36.575Z,4.97
2023-02-19T04:16:01.938Z,4.50
2023-02-19T04:18:29.139Z,5.63
2023-02-19T04:20:51.598Z,5.40
2023-02-19T04:23:15.141Z,5.80
2023-02-19T04:25:39.954Z,5.50
2023-02-19T04:28:03.348Z,5.77
2023-02-19T04:30:25.714Z,5.90
2023-02-19T04:32:48.261Z,6.10
2023-02-19T04:35:19.397Z,5.30
2023-02-19T04:37:42.499Z,5.47
2023-02-19T04:40:04.907Z,5.03
2023-02-19T04:42:27.617Z,5.00
2023-02-19T04:44:49.965Z,5.23
2023-02-19T04:47:12.329Z,5.70
2023-02-19T04:49:34.697Z,5.30
2023-02-19T04:51:56.884Z,5.67
2023-02-19T04:54:19.289Z,5.77
2023-02-19T04:56:41.990Z,4.77
2023-02-19T04:59:05.033Z,5.20
2023-02-19T05:01:27.777Z,4.97
2023-02-19T05:03:50.294Z,4.50
2023-02-19T05:06:13.863Z,4.70
2023-02-19T05:08:36.727Z,4.63
2023-02-19T05:11:02.874Z,4.30
2023-02-19T05:13:25.538Z,4.10
2023-02-19T05:16:06.792Z,4.13
2023-02-19T05:18:29.057Z,4.33
2023-02-19T05:20:52.024Z,4.00
2023-02-19T05:23:14.303Z,4.43
2023-02-19T05:25:36.714Z,3.97
2023-02-19T05:28:17.062Z,4.53
2023-02-19T05:30:39.362Z,4.37
2023-02-19T05:33:01.591Z,4.10
2023-02-19T05:35:24.056Z,3.60
2023-02-19T05:37:46.311Z,3.63
2023-02-19T05:40:08.627Z,3.93
2023-02-19T05:42:30.834Z,3.50
2023-02-19T05:44:53.099Z,4.90
2023-02-19T05:47:15.359Z,3.70
2023-02-19T05:49:37.791Z,3.67
2023-02-19T05:52:00.111Z,4.20
2023-02-19T05:54:22.457Z,3.70
2023-02-19T05:56:44.713Z,3.67
2023-02-19T05:59:18.000Z,4.40
2023-02-19T06:01:40.242Z,4.00
2023-02-19T06:04:02.869Z,3.83
2023-02-19T06:06:26.336Z,4.10
2023-02-19T06:08:50.664Z,4.37
2023-02-19T06:11:13.053Z,4.60
2023-02-19T06:13:35.563Z,4.07
2023-02-19T06:15:57.827Z,3.83
2023-02-19T06:18:20.031Z,4.13
2023-02-19T06:20:42.402Z,4.03
2023-02-19T06:23:04.661Z,4.30
2023-02-19T06:25:26.911Z,3.97
2023-02-19T06:27:49.258Z,4.23
2023-02-19T06:30:12.076Z,4.50
2023-02-19T06:32:35.398Z,4.13
2023-02-19T06:34:57.597Z,4.20
2023-02-19T06:37:19.880Z,4.40
2023-02-19T06:39:42.109Z,4.37
2023-02-19T06:42:04.686Z,4.40
2023-02-19T06:44:26.899Z,4.27
2023-02-19T06:46:49.164Z,4.30
2023-02-19T06:49:11.491Z,4.00
2023-02-19T06:51:34.245Z,4.10
2023-02-19T06:54:02.607Z,3.80
2023-02-19T06:56:29.216Z,4.17
2023-02-19T06:58:51.846Z,3.93
2023-02-19T07:01:14.180Z,3.77
2023-02-19T07:03:36.478Z,3.93
2023-02-19T07:06:00.803Z,3.47
2023-02-19T07:08:23.435Z,4.17
2023-02-19T07:10:46.234Z,3.83
2023-02-19T07:13:08.744Z,4.00
2023-02-19T07:15:31.370Z,3.57
2023-02-19T07:17:53.648Z,3.87
2023-02-19T07:20:15.857Z,3.40
2023-02-19T07:22:38.229Z,3.20
2023-02-19T07:25:00.593Z,3.23
2023-02-19T07:27:23.031Z,3.63
2023-02-19T07:29:45.269Z,3.30
2023-02-19T07:32:07.534Z,2.90
2023-02-19T07:34:29.971Z,3.60
2023-02-19T07:36:52.410Z,3.40
2023-02-19T07:39:16.042Z,3.27
2023-02-19T07:41:38.535Z,4.33
2023-02-19T07:44:01.746Z,3.37
2023-02-19T07:46:24.335Z,3.70
2023-02-19T07:48:47.178Z,3.30
2023-02-19T07:51:12.260Z,3.10
2023-02-19T07:53:38.805Z,3.73
2023-02-19T07:56:02.087Z,3.20
2023-02-19T07:58:24.320Z,3.20
2023-02-19T08:00:47.281Z,3.13
2023-02-19T08:03:09.672Z,3.63
2023-02-19T08:05:33.192Z,3.30
2023-02-19T08:07:55.487Z,3.00
2023-02-19T08:10:36.567Z,4.13
2023-02-19T08:13:18.877Z,3.00
2023-02-19T08:15:41.274Z,3.17
2023-02-19T08:18:03.532Z,3.23
2023-02-19T08:20:25.896Z,2.73
2023-02-19T08:22:48.189Z,3.00
2023-02-19T08:25:10.406Z,3.03
2023-02-19T08:27:32.674Z,3.07
2023-02-19T08:30:01.192Z,3.33
2023-02-19T08:32:23.401Z,2.97
2023-02-19T08:34:45.689Z,3.10
2023-02-19T08:37:07.909Z,3.27
2023-02-19T08:39:30.482Z,3.00
2023-02-19T08:41:54.001Z,2.97
2023-02-19T08:44:16.378Z,3.70
2023-02-19T08:46:39.998Z,3.00
2023-02-19T08:49:02.309Z,3.37
2023-02-19T08:51:24.603Z,3.30
2023-02-19T08:53:47.223Z,2.83
2023-02-19T08:56:11.173Z,3.50
2023-02-19T08:58:33.634Z,2.63
2023-02-19T09:00:55.994Z,2.97
2023-02-19T09:03:18.515Z,2.60
2023-02-19T09:05:40.901Z,2.37
2023-02-19T09:08:03.528Z,3.00
2023-02-19T09:10:25.733Z,2.80
2023-02-19T09:12:49.181Z,3.07
2023-02-19T09:15:11.439Z,3.23
2023-02-19T09:17:33.733Z,3.10
2023-02-19T09:19:56.069Z,2.77
2023-02-19T09:22:18.398Z,3.47
2023-02-19T09:24:40.677Z,3.10
2023-02-19T09:27:02.942Z,3.47
2023-02-19T09:29:26.025Z,2.90
2023-02-19T09:31:48.506Z,2.90
2023-02-19T09:34:11.933Z,3.00
2023-02-19T09:36:34.417Z,3.17
2023-02-19T09:38:56.633Z,2.97
2023-02-19T09:41:24.777Z,2.83
2023-02-19T09:43:47.114Z,3.03
2023-02-19T09:46:39.053Z,3.00
2023-02-19T09:49:07.954Z,3.30
2023-02-19T09:51:30.499Z,2.97
2023-02-19T09:53:53.172Z,2.53
2023-02-19T09:56:15.440Z,2.73
2023-02-19T09:58:58.044Z,2.73
2023-02-19T10:01:20.624Z,3.33
2023-02-19T10:03:46.972Z,2.77
2023-02-19T10:06:14.980Z,3.13
2023-02-19T10:08:38.052Z,2.53
2023-02-19T10:11:01.213Z,2.80
2023-02-19T10:13:43.722Z,2.80
2023-02-19T10:16:07.796Z,2.57
2023-02-19T10:18:39.901Z,3.10
2023-02-19T10:21:02.288Z,2.40
2023-02-19T10:23:25.265Z,2.50
2023-02-19T10:25:49.699Z,2.67
2023-02-19T10:28:15.319Z,2.60
2023-02-19T10:30:39.557Z,2.43
2023-02-19T10:33:12.956Z,2.87
2023-02-19T10:35:36.745Z,2.50
2023-02-19T10:37:59.375Z,2.87
2023-02-19T10:40:23.104Z,2.53
2023-02-19T10:42:49.566Z,2.43
2023-02-19T10:45:17.839Z,3.43
2023-02-19T10:47:46.656Z,2.90
2023-02-19T10:50:18.090Z,3.00
2023-02-19T10:52:42.307Z,3.20
2023-02-19T10:55:16.937Z,3.00
2023-02-19T10:57:39.238Z,2.80
2023-02-19T11:00:02.618Z,2.67
2023-02-19T11:02:25.541Z,3.07
2023-02-19T11:05:06.753Z,2.30
2023-02-19T11:07:29.043Z,2.60
2023-02-19T11:09:53.660Z,2.97
2023-02-19T11:12:24.033Z,3.10
2023-02-19T11:14:46.562Z,3.17
2023-02-19T11:17:21.459Z,2.70
2023-02-19T11:19:50.940Z,2.50
2023-02-19T11:22:28.744Z,2.40
2023-02-19T11:24:58.489Z,3.10
2023-02-19T11:27:23.619Z,2.80
2023-02-19T11:29:45.916Z,2.40
2023-02-19T11:32:25.094Z,1.90
2023-02-19T11:34:47.950Z,2.43
2023-02-19T11:37:12.036Z,2.47
2023-02-19T11:39:34.668Z,2.83
2023-02-19T11:42:06.170Z,2.30
2023-02-19T11:44:39.432Z,2.03
2023-02-19T11:47:28.526Z,2.63
2023-02-19T11:50:09.464Z,2.93
2023-02-19T11:52:40.962Z,2.50
2023-02-19T11:55:09.927Z,2.93
2023-02-19T11:57:49.647Z,2.43
2023-02-19T12:00:19.318Z,2.90
2023-02-19T12:03:00.621Z,2.47
2023-02-19T12:05:40.010Z,2.50
2023-02-19T12:08:05.472Z,2.67
2023-02-19T12:10:50.790Z,2.83
2023-02-19T12:13:22.233Z,2.63
2023-02-19T12:15:56.808Z,2.30
2023-02-19T12:18:38.253Z,2.27
2023-02-19T12:21:03.492Z,2.53
2023-02-19T12:23:32.149Z,2.20
2023-02-19T12:26:03.492Z,2.73
2023-02-19T12:28:37.465Z,2.40
2023-02-19T12:31:08.977Z,2.50
2023-02-19T12:33:40.586Z,2.80
2023-02-19T12:36:14.909Z,2.50
2023-02-19T12:38:43.678Z,2.17
2023-02-19T12:41:11.708Z,2.30
2023-02-19T12:43:35.267Z,2.20
2023-02-19T12:46:00.209Z,2.27
2023-02-19T12:48:43.506Z,2.23
2023-02-19T12:51:15.210Z,2.47
2023-02-19T12:53:54.636Z,3.00
2023-02-19T12:56:24.241Z,2.60
2023-02-19T12:58:59.281Z,3.13
2023-02-19T13:01:24.127Z,3.00
2023-02-19T13:03:58.098Z,2.50
2023-02-19T13:06:26.458Z,2.60
2023-02-19T13:09:05.404Z,3.30
2023-02-19T13:11:31.667Z,2.80
2023-02-19T13:13:58.803Z,3.13
2023-02-19T13:16:23.347Z,3.47
2023-02-19T13:18:47.750Z,3.60
2023-02-19T13:21:10.531Z,2.70
2023-02-19T13:23:54.328Z,2.77
2023-02-19T13:26:16.651Z,2.40
2023-02-19T13:28:53.996Z,2.90
2023-02-19T13:31:46.206Z,2.63
2023-02-19T13:34:24.435Z,2.80
2023-02-19T13:36:48.809Z,2.80
2023-02-19T13:41:42.490Z,3.20
2023-02-19T13:44:06.614Z,2.77
2023-02-19T13:46:40.318Z,2.97
2023-02-19T13:49:21.682Z,2.50
2023-02-19T13:52:00.457Z,3.07
2023-02-19T13:54:24.622Z,2.80
2023-02-19T13:56:47.170Z,3.00
2023-02-19T13:59:26.605Z,3.23
2023-02-19T14:01:52.252Z,2.40
2023-02-19T14:04:33.010Z,3.13
2023-02-19T14:07:04.328Z,2.83
2023-02-19T14:09:35.557Z,3.00
2023-02-19T14:12:10.316Z,2.63
2023-02-19T14:14:41.653Z,2.67
2023-02-19T14:17:10.011Z,3.00
2023-02-19T14:19:53.859Z,2.73
2023-02-19T14:22:35.132Z,2.73
2023-02-19T14:24:58.222Z,2.83
2023-02-19T14:27:21.475Z,2.73
2023-02-19T14:29:44.273Z,2.90
2023-02-19T14:32:06.726Z,3.10
2023-02-19T14:34:29.592Z,3.37
2023-02-19T14:36:56.793Z,3.47
2023-02-19T14:39:26.362Z,2.77
2023-02-19T14:41:53.554Z,3.43
2023-02-19T14:44:26.470Z,3.20
2023-02-19T14:46:52.189Z,3.43
2023-02-19T14:49:24.789Z,3.03
2023-02-19T14:51:59.444Z,3.60
2023-02-19T14:54:28.470Z,3.23
2023-02-19T14:56:52.132Z,2.60
2023-02-19T14:59:14.321Z,3.10
2023-02-19T15:01:36.618Z,2.43
2023-02-19T15:03:58.953Z,2.93
2023-02-19T15:06:23.394Z,3.00
2023-02-19T15:08:50.664Z,2.77
2023-02-19T15:11:16.252Z,3.00
2023-02-19T15:13:38.701Z,2.80
2023-02-19T15:16:01.179Z,3.00
2023-02-19T15:18:27.290Z,2.53
2023-02-19T15:20:50.569Z,2.73
2023-02-19T15:23:17.570Z,2.83
2023-02-19T15:25:40.210Z,2.87
2023-02-19T15:28:21.405Z,2.47
2023-02-19T15:30:43.633Z,2.90
2023-02-19T15:33:16.393Z,2.57
2023-02-19T15:35:38.986Z,2.63
2023-02-19T15:38:01.539Z,2.90
2023-02-19T15:40:31.460Z,2.47
2023-02-19T15:42:54.006Z,2.73
2023-02-19T15:45:27.919Z,2.90
2023-02-19T15:47:52.901Z,2.77
2023-02-19T15:50:19.426Z,2.60
2023-02-19T15:52:50.926Z,2.57
2023-02-19T15:55:21.787Z,2.77
2023-02-19T15:57:46.888Z,2.93
2023-02-19T16:00:15.439Z,2.87
2023-02-19T16:02:38.013Z,2.80
2023-02-19T16:05:02.210Z,2.70
2023-02-19T16:07:26.075Z,2.60
2023-02-19T16:09:48.366Z,2.97
2023-02-19T16:12:21.488Z,2.80
2023-02-19T16:14:43.797Z,2.90
2023-02-19T16:17:11.927Z,2.97
2023-02-19T16:19:46.757Z,3.17
2023-02-19T16:22:10.765Z,2.73
2023-02-19T16:24:38.212Z,3.23
2023-02-19T16:27:00.586Z,2.50
2023-02-19T16:29:24.423Z,2.90
2023-02-19T16:31:55.537Z,3.27
2023-02-19T16:34:19.655Z,3.23
2023-02-19T16:36:43.445Z,3.90
2023-02-19T16:39:08.987Z,2.73
2023-02-19T16:41:31.832Z,2.83
2023-02-19T16:43:54.267Z,2.83
2023-02-19T16:46:20.790Z,3.00
2023-02-19T16:48:43.657Z,3.00
2023-02-19T16:51:06.851Z,2.40
2023-02-19T16:53:29.539Z,3.03
2023-02-19T16:55:52.087Z,2.80
2023-02-19T16:58:14.428Z,3.67
2023-02-19T17:00:36.665Z,3.10
2023-02-19T17:03:02.883Z,3.30
2023-02-19T17:05:37.481Z,2.70
2023-02-19T17:07:59.703Z,3.03
2023-02-19T17:10:26.558Z,3.40
2023-02-19T17:12:48.738Z,3.30
2023-02-19T17:15:12.292Z,3.23
2023-02-19T17:17:34.692Z,3.30
2023-02-19T17:19:57.132Z,3.83
2023-02-19T17:22:19.374Z,4.03
2023-02-19T17:24:41.864Z,3.00
2023-02-19T17:27:04.175Z,3.17
2023-02-19T17:29:28.388Z,3.87
2023-02-19T17:31:50.900Z,4.57
2023-02-19T17:34:13.244Z,5.60
2023-02-19T17:36:35.645Z,3.93
2023-02-19T17:38:58.652Z,3.90
2023-02-19T17:41:21.029Z,3.93
2023-02-19T17:43:43.259Z,3.60
2023-02-19T17:46:05.632Z,3.33
2023-02-19T17:48:27.909Z,3.37
2023-02-19T17:50:52.157Z,3.43
2023-02-19T17:53:14.365Z,4.20
2023-02-19T17:55:36.633Z,3.87
2023-02-19T17:57:58.815Z,6.63
2023-02-19T18:00:25.591Z,3.70
2023-02-19T18:02:47.816Z,5.37
2023-02-19T18:05:10.273Z,5.40
2023-02-19T18:07:32.651Z,3.93
2023-02-19T18:09:55.003Z,4.23
2023-02-19T18:12:17.341Z,3.37
2023-02-19T18:14:39.823Z,4.87
2023-02-19T18:17:02.249Z,3.47
2023-02-19T18:19:25.751Z,3.40
2023-02-19T18:21:48.055Z,3.70
2023-02-19T18:24:10.254Z,3.83
2023-02-19T18:26:33.579Z,4.07
2023-02-19T18:28:55.794Z,3.27
2023-02-19T18:31:18.099Z,3.70
2023-02-19T18:33:40.392Z,3.73
2023-02-19T18:36:02.807Z,3.57
2023-02-19T18:38:25.006Z,4.53
2023-02-19T18:40:47.606Z,3.27
2023-02-19T18:43:09.887Z,3.40
2023-02-19T18:45:35.251Z,3.20
2023-02-19T18:47:57.512Z,3.77
2023-02-19T18:50:20.090Z,4.40
2023-02-19T18:52:42.377Z,3.60
2023-02-19T18:55:04.644Z,3.13
2023-02-19T18:57:26.904Z,3.20
2023-02-19T18:59:49.498Z,4.13
2023-02-19T19:02:12.034Z,5.73
2023-02-19T19:04:34.986Z,4.93
2023-02-19T19:06:57.501Z,3.60
2023-02-19T19:09:19.725Z,4.30
2023-02-19T19:11:44.290Z,3.23
2023-02-19T19:14:06.610Z,3.00
2023-02-19T19:16:29.861Z,2.97
2023-02-19T19:18:52.204Z,2.73
2023-02-19T19:21:15.494Z,3.10
2023-02-19T19:23:37.756Z,3.33
2023-02-19T19:25:59.985Z,3.00
2023-02-19T19:28:22.786Z,3.60
2023-02-19T19:30:45.007Z,2.70
2023-02-19T19:33:07.277Z,3.57
2023-02-19T19:35:29.646Z,3.20
2023-02-19T19:37:51.975Z,3.30
2023-02-19T19:40:14.260Z,3.10
2023-02-19T19:42:36.509Z,4.20
2023-02-19T19:44:58.902Z,3.37
2023-02-19T19:47:21.595Z,3.93
2023-02-19T19:49:46.105Z,3.40
2023-02-19T19:52:08.949Z,4.33
2023-02-19T19:54:31.238Z,3.50
2023-02-19T19:56:53.506Z,3.60
2023-02-19T19:59:16.606Z,3.57
2023-02-19T20:01:39.433Z,5.43
2023-02-19T20:04:01.893Z,3.13
2023-02-19T20:06:26.007Z,3.43
2023-02-19T20:08:49.335Z,3.40
2023-02-19T20:11:11.717Z,3.60
2023-02-19T20:13:34.540Z,3.33
2023-02-19T20:15:56.885Z,3.53
2023-02-19T20:18:20.726Z,3.97
2023-02-19T20:20:43.252Z,3.13
2023-02-19T20:23:05.898Z,3.47
2023-02-19T20:25:37.070Z,2.60
2023-02-19T20:27:59.287Z,3.07
2023-02-19T20:30:23.322Z,3.93
2023-02-19T20:32:45.518Z,3.40
2023-02-19T20:35:07.893Z,3.30
2023-02-19T20:37:30.177Z,3.93
2023-02-19T20:39:52.422Z,3.40
2023-02-19T20:42:17.010Z,3.50
2023-02-19T20:44:39.280Z,3.00
2023-02-19T20:47:01.815Z,3.27
2023-02-19T20:49:25.439Z,3.30
2023-02-19T20:51:48.958Z,3.23
2023-02-19T20:54:11.274Z,3.23
2023-02-19T20:56:33.596Z,3.50
2023-02-19T20:58:55.823Z,3.40
2023-02-19T21:01:18.082Z,3.37
2023-02-19T21:03:40.573Z,3.93
2023-02-19T21:06:02.854Z,3.23
2023-02-19T21:08:25.057Z,3.87
2023-02-19T21:10:47.276Z,3.60
2023-02-19T21:13:09.530Z,3.70
2023-02-19T21:15:31.812Z,4.00
2023-02-19T21:17:54.135Z,3.77
2023-02-19T21:20:20.245Z,4.00
2023-02-19T21:22:42.495Z,4.30
2023-02-19T21:25:04.943Z,4.83
2023-02-19T21:27:27.409Z,4.20
2023-02-19T21:29:49.645Z,3.70
2023-02-19T21:32:12.112Z,4.33
2023-02-19T21:34:34.422Z,4.47
2023-02-19T21:36:57.240Z,4.47
2023-02-19T21:39:20.746Z,4.63
2023-02-19T21:41:43.074Z,5.00
2023-02-19T21:44:05.396Z,4.20
2023-02-19T21:46:27.708Z,4.20
2023-02-19T21:48:50.761Z,3.90
2023-02-19T21:51:13.104Z,4.57
2023-02-19T21:53:35.655Z,4.83
2023-02-19T21:55:59.090Z,4.80
2023-02-19T21:58:21.439Z,5.27
2023-02-19T22:00:43.746Z,5.43
2023-02-19T22:03:05.957Z,5.67
2023-02-19T22:05:28.196Z,5.60
2023-02-19T22:07:52.528Z,5.43
2023-02-19T22:10:16.664Z,5.93
2023-02-19T22:12:38.931Z,5.50
2023-02-19T22:15:01.347Z,5.47
2023-02-19T22:17:24.969Z,5.17
2023-02-19T22:19:47.253Z,4.63
2023-02-19T22:22:09.535Z,6.27
2023-02-19T22:24:31.765Z,6.00
2023-02-19T22:26:57.652Z,5.40
2023-02-19T22:29:19.852Z,6.67
2023-02-19T22:31:42.230Z,6.57
2023-02-19T22:34:05.869Z,6.63
2023-02-19T22:36:31.021Z,6.27
2023-02-19T22:38:53.750Z,6.43
2023-02-19T22:41:16.389Z,6.27
2023-02-19T22:43:38.663Z,7.07
2023-02-19T22:46:00.978Z,6.70
2023-02-19T22:48:30.059Z,7.10
2023-02-19T22:50:52.668Z,6.97
2023-02-19T22:53:14.898Z,6.80
2023-02-19T22:55:37.228Z,6.87
2023-02-19T22:57:59.509Z,6.73
2023-02-19T23:00:22.200Z,6.67
2023-02-19T23:02:46.662Z,7.00
2023-02-19T23:05:08.997Z,7.63
2023-02-19T23:07:31.262Z,8.17
2023-02-19T23:09:53.621Z,7.60
2023-02-19T23:12:15.959Z,8.80
2023-02-19T23:14:38.194Z,8.43
2023-02-19T23:17:00.555Z,7.97
2023-02-19T23:19:22.870Z,8.60
2023-02-19T23:21:45.642Z,7.03
2023-02-19T23:24:07.920Z,7.27
2023-02-19T23:26:30.232Z,7.40
2023-02-19T23:28:53.157Z,7.20
2023-02-19T23:31:15.937Z,8.23
2023-02-19T23:33:38.226Z,9.07
2023-02-19T23:36:00.600Z,9.13
2023-02-19T23:38:22.839Z,9.77
2023-02-19T23:40:45.401Z,9.27
2023-02-19T23:43:07.623Z,8.30
2023-02-19T23:45:29.926Z,9.33
2023-02-19T23:47:52.141Z,9.57
2023-02-19T23:50:16.206Z,10.30
2023-02-19T23:52:38.407Z,9.50
2023-02-19T23:55:00.595Z,10.00
2023-02-19T23:57:22.787Z,9.13
2023-02-19T23:59:47.241Z,9.90
